Time;durP1;ratioP1;P1;durP2;ratioP2;P2;SDS_P1;SDS_P2;PMS_P1;PMS_P2;Temp;Humidity;BMP_temperature;BMP_pressure;BME280_temperature;BME280_humidity;BME280_pressure;Samples;Min_cycle;Max_cycle;Signal;HPM_P1;HPM_P2
2021/11/11 00:01:57;;;;;;;47.17;24.23;;;;;;;0.23;100.00;97171.44;4996513;28;20088;-60
2021/11/11 00:04:23;;;;;;;49.72;24.70;;;;;;;0.21;100.00;97170.94;4987407;28;20903;-62
2021/11/11 00:06:50;;;;;;;47.63;23.17;;;;;;;0.20;100.00;97169.34;4978019;28;20577;-61
2021/11/11 00:09:15;;;;;;;44.42;22.75;;;;;;;0.40;100.00;97162.09;4966822;28;20040;-57
2021/11/11 00:11:42;;;;;;;51.63;23.40;;;;;;;0.66;100.00;97182.22;4972741;28;20049;-59
2021/11/11 00:14:08;;;;;;;49.08;23.23;;;;;;;0.96;100.00;97174.81;4970008;28;20034;-58
2021/11/11 00:16:33;;;;;;;44.33;22.95;;;;;;;1.13;100.00;97179.66;4970132;28;20107;-60
2021/11/11 00:18:59;;;;;;;44.08;21.55;;;;;;;1.14;100.00;97187.47;4972268;28;20074;-61
2021/11/11 00:21:24;;;;;;;41.60;21.15;;;;;;;1.26;100.00;97184.34;4969764;28;20396;-59
2021/11/11 00:23:50;;;;;;;40.78;21.25;;;;;;;1.37;100.00;97182.28;4970708;28;20133;-59
2021/11/11 00:26:15;;;;;;;43.47;21.15;;;;;;;1.43;100.00;97169.50;4968655;28;20038;-59
2021/11/11 00:28:41;;;;;;;40.45;19.95;;;;;;;1.53;100.00;97169.31;4970405;28;20038;-58
2021/11/11 00:31:06;;;;;;;39.65;19.67;;;;;;;1.59;100.00;97180.84;4967500;28;20092;-57
2021/11/11 00:33:32;;;;;;;47.15;18.98;;;;;;;1.61;100.00;97170.53;4969983;28;20382;-59
2021/11/11 00:35:57;;;;;;;37.90;19.40;;;;;;;1.68;100.00;97171.75;4976018;28;20030;-62
2021/11/11 00:38:23;;;;;;;32.83;18.50;;;;;;;1.67;100.00;97172.84;4972361;28;20050;-62
2021/11/11 00:40:49;;;;;;;40.47;19.48;;;;;;;1.52;100.00;97167.72;4974138;28;20538;-59
2021/11/11 00:43:14;;;;;;;31.02;17.63;;;;;;;1.45;100.00;97170.78;4967530;28;20819;-62
2021/11/11 00:45:40;;;;;;;39.13;20.23;;;;;;;1.29;100.00;97175.63;4971889;28;20066;-62
2021/11/11 00:48:06;;;;;;;38.80;18.52;;;;;;;1.17;100.00;97175.31;4961399;28;20384;-64
2021/11/11 00:50:34;;;;;;;39.05;19.80;;;;;;;1.21;100.00;97170.91;4956269;28;20046;-62
2021/11/11 00:53:01;;;;;;;38.70;18.35;;;;;;;1.37;100.00;97176.88;4970625;28;20034;-62
2021/11/11 00:55:26;;;;;;;38.28;21.92;;;;;;;1.43;100.00;97177.59;4963756;28;20053;-61
2021/11/11 00:57:54;;;;;;;36.97;19.70;;;;;;;1.53;100.00;97178.22;4971041;28;20050;-62
2021/11/11 01:00:20;;;;;;;32.15;18.13;;;;;;;1.59;100.00;97172.75;4980447;28;20046;-60
2021/11/11 01:02:48;;;;;;;32.00;18.23;;;;;;;1.65;100.00;97174.25;4981871;28;20042;-62
2021/11/11 01:05:14;;;;;;;41.85;19.70;;;;;;;1.70;100.00;97174.94;4977689;28;20112;-62
2021/11/11 01:07:40;;;;;;;35.92;18.88;;;;;;;1.58;100.00;97171.91;4981237;28;20042;-60
2021/11/11 01:10:11;;;;;;;37.25;19.58;;;;;;;1.63;100.00;97166.44;4976739;28;20042;-60
2021/11/11 01:12:37;;;;;;;39.25;19.00;;;;;;;1.80;100.00;97165.88;4981458;28;20096;-58
2021/11/11 01:15:05;;;;;;;32.92;18.02;;;;;;;1.92;100.00;97176.19;4978779;28;20038;-64
2021/11/11 01:17:31;;;;;;;34.83;19.95;;;;;;;1.95;100.00;97170.19;4981670;28;20050;-60
2021/11/11 01:19:57;;;;;;;33.20;17.92;;;;;;;2.04;100.00;97156.78;4981977;28;20042;-60
2021/11/11 01:22:23;;;;;;;35.55;18.00;;;;;;;2.16;100.00;97154.41;4988659;28;20062;-62
2021/11/11 01:24:48;;;;;;;36.75;17.45;;;;;;;2.11;100.00;97162.59;4999072;28;20074;-61
2021/11/11 01:27:14;;;;;;;33.92;17.13;;;;;;;2.11;100.00;97157.19;4992031;28;20038;-62
2021/11/11 01:29:39;;;;;;;31.25;17.75;;;;;;;2.11;100.00;97157.19;4993561;28;20479;-61
2021/11/11 01:32:06;;;;;;;32.33;17.73;;;;;;;2.13;100.00;97165.78;4978199;28;20081;-62
2021/11/11 01:34:31;;;;;;;35.55;18.20;;;;;;;1.98;100.00;97158.78;4981790;28;20045;-59
2021/11/11 01:36:57;;;;;;;36.97;18.98;;;;;;;1.85;100.00;97168.47;4981636;28;20046;-59
2021/11/11 01:39:23;;;;;;;36.75;18.63;;;;;;;1.87;100.00;97178.97;4976527;28;20046;-63
2021/11/11 01:41:49;;;;;;;33.75;18.13;;;;;;;1.97;100.00;97172.59;4982334;28;20038;-60
2021/11/11 01:44:16;;;;;;;31.17;17.00;;;;;;;1.96;100.00;97166.38;4974015;28;20042;-60
2021/11/11 01:46:42;;;;;;;36.67;17.80;;;;;;;2.17;100.00;97160.59;4981550;28;20086;-60
2021/11/11 01:49:08;;;;;;;31.90;16.65;;;;;;;2.20;100.00;97163.50;4974292;28;20515;-62
2021/11/11 01:51:34;;;;;;;35.70;18.08;;;;;;;2.25;100.00;97159.88;4981097;28;20038;-60
2021/11/11 01:53:59;;;;;;;35.45;18.33;;;;;;;2.02;100.00;97165.19;4973365;28;20824;-60
2021/11/11 01:56:24;;;;;;;36.20;17.40;;;;;;;1.89;100.00;97163.25;4956928;28;20053;-60
2021/11/11 01:58:51;;;;;;;38.58;18.35;;;;;;;2.01;100.00;97163.56;4961553;28;20047;-61
2021/11/11 02:01:17;;;;;;;36.42;18.83;;;;;;;2.14;100.00;97159.28;4956529;28;20061;-60
2021/11/11 02:03:44;;;;;;;36.78;18.20;;;;;;;2.39;100.00;97157.97;4962003;28;20058;-59
2021/11/11 02:06:10;;;;;;;41.88;19.13;;;;;;;2.40;100.00;97151.47;4955792;28;20133;-59
2021/11/11 02:08:36;;;;;;;36.25;18.50;;;;;;;2.36;100.00;97146.94;4961350;28;20162;-57
2021/11/11 02:11:01;;;;;;;39.00;19.38;;;;;;;2.45;100.00;97154.06;4968142;28;20043;-60
2021/11/11 02:13:26;;;;;;;34.05;18.65;;;;;;;2.49;100.00;97144.25;4984139;28;20042;-62
2021/11/11 02:15:52;;;;;;;39.25;20.10;;;;;;;2.48;100.00;97149.94;4981472;28;20034;-61
2021/11/11 02:18:18;;;;;;;44.03;20.25;;;;;;;2.44;100.00;97148.97;4972155;28;20043;-62
2021/11/11 02:20:44;;;;;;;40.42;20.33;;;;;;;2.51;100.00;97152.06;4994733;28;20100;-59
2021/11/11 02:23:12;;;;;;;42.25;19.45;;;;;;;2.51;100.00;97152.06;4973049;28;20074;-62
2021/11/11 02:25:39;;;;;;;46.30;20.65;;;;;;;2.46;100.00;97147.53;4976841;28;20043;-62
2021/11/11 02:28:08;;;;;;;50.38;21.45;;;;;;;2.48;100.00;97149.94;4976391;28;20454;-63
2021/11/11 02:30:36;;;;;;;46.70;20.98;;;;;;;2.64;100.00;97150.41;4984542;28;20042;-60
2021/11/11 02:33:09;;;;;;;49.42;22.95;;;;;;;2.75;100.00;97156.41;4984140;28;20064;-62
2021/11/11 02:35:34;;;;;;;46.72;21.30;;;;;;;2.68;100.00;97157.63;4998550;28;20403;-63
2021/11/11 02:38:00;;;;;;;41.25;19.88;;;;;;;2.79;100.00;97149.28;4975999;28;20049;-62
2021/11/11 02:40:28;;;;;;;39.72;18.92;;;;;;;2.80;100.00;97159.00;4971222;28;20049;-62
2021/11/11 02:42:54;;;;;;;47.55;21.55;;;;;;;2.93;100.00;97149.25;4981971;28;20050;-62
2021/11/11 02:45:24;;;;;;;44.85;21.75;;;;;;;2.91;100.00;97149.53;4977778;28;20049;-65
2021/11/11 02:47:51;;;;;;;45.42;22.80;;;;;;;2.91;100.00;97152.25;4982566;28;20121;-63
2021/11/11 02:50:17;;;;;;;42.08;19.83;;;;;;;2.91;100.00;97163.06;4976924;28;20049;-63
2021/11/11 02:52:45;;;;;;;40.22;19.40;;;;;;;2.76;100.00;97161.53;4975229;28;20053;-62
2021/11/11 02:55:12;;;;;;;46.30;20.65;;;;;;;2.74;100.00;97152.09;4980770;28;20039;-62
2021/11/11 02:57:39;;;;;;;42.88;19.83;;;;;;;2.72;100.00;97159.72;4974990;28;20133;-61
2021/11/11 03:00:15;;;;;;;45.08;18.73;;;;;;;2.71;100.00;97160.84;4971424;28;20047;-63
2021/11/11 03:02:44;;;;;;;44.65;20.33;;;;;;;2.78;100.00;97155.81;4987851;28;20112;-63
2021/11/11 03:05:12;;;;;;;41.83;20.60;;;;;;;2.75;100.00;97157.19;4978372;28;20454;-62
2021/11/11 03:07:38;;;;;;;42.17;20.05;;;;;;;2.70;100.00;97157.31;4969998;28;20038;-62
2021/11/11 03:10:10;;;;;;;43.10;20.75;;;;;;;2.54;100.00;97164.97;4970803;28;20042;-65
2021/11/11 03:12:35;;;;;;;46.65;21.50;;;;;;;2.62;100.00;97172.34;4971211;28;20046;-61
2021/11/11 03:15:03;;;;;;;49.45;21.33;;;;;;;2.71;100.00;97177.06;4970294;28;20105;-62
2021/11/11 03:17:28;;;;;;;50.00;21.40;;;;;;;2.83;100.00;97172.72;4977112;28;20050;-62
2021/11/11 03:19:54;;;;;;;53.92;21.98;;;;;;;2.80;100.00;97183.34;4983579;28;20041;-61
2021/11/11 03:22:20;;;;;;;48.97;21.38;;;;;;;2.82;100.00;97178.44;4969499;28;20487;-62
2021/11/11 03:24:48;;;;;;;56.03;22.90;;;;;;;2.91;100.00;97176.59;4982389;28;20043;-60
2021/11/11 03:27:15;;;;;;;53.65;22.02;;;;;;;2.97;100.00;97190.81;4959779;28;20039;-62
2021/11/11 03:29:40;;;;;;;53.45;22.20;;;;;;;2.99;100.00;97189.41;4968290;28;20046;-60
2021/11/11 03:32:07;;;;;;;82.25;23.55;;;;;;;2.68;100.00;97178.44;4970573;28;20042;-61
2021/11/11 03:34:33;;;;;;;55.72;24.13;;;;;;;2.70;100.00;97181.66;4977456;28;20042;-61
2021/11/11 03:36:58;;;;;;;53.40;22.88;;;;;;;2.74;100.00;97187.25;4982539;28;20112;-61
2021/11/11 03:39:25;;;;;;;61.08;24.30;;;;;;;2.73;100.00;97193.78;4975988;28;20170;-62
2021/11/11 03:41:53;;;;;;;61.17;24.75;;;;;;;2.91;100.00;97192.03;4973514;28;20496;-61
2021/11/11 03:44:21;;;;;;;53.28;23.30;;;;;;;2.87;100.00;97198.06;4969538;28;20055;-59
2021/11/11 03:46:48;;;;;;;56.85;23.60;;;;;;;2.92;100.00;97199.03;4963287;28;20108;-62
2021/11/11 03:49:14;;;;;;;58.85;25.10;;;;;;;3.01;100.00;97198.03;4964410;28;20038;-61
2021/11/11 03:51:41;;;;;;;64.45;23.95;;;;;;;3.04;100.00;97202.84;4975942;28;20519;-58
2021/11/11 03:54:07;;;;;;;60.38;25.17;;;;;;;3.06;100.00;97200.63;4971188;28;20061;-61
2021/11/11 03:56:34;;;;;;;51.42;24.15;;;;;;;3.13;100.00;97194.78;4973333;28;20049;-62
2021/11/11 03:59:00;;;;;;;58.83;24.55;;;;;;;3.22;100.00;97192.13;4969600;28;20126;-57
2021/11/11 04:01:25;;;;;;;63.60;26.80;;;;;;;2.89;100.00;97199.66;4975863;28;20503;-62
2021/11/11 04:03:51;;;;;;;70.15;27.50;;;;;;;2.55;100.00;97193.59;4994683;28;20066;-64
2021/11/11 04:06:17;;;;;;;72.45;27.58;;;;;;;2.34;100.00;97192.41;4999433;28;20058;-64
2021/11/11 04:08:43;;;;;;;88.75;29.63;;;;;;;2.24;100.00;97196.13;5002977;28;20058;-63
2021/11/11 04:11:08;;;;;;;57.90;26.98;;;;;;;2.28;100.00;97194.41;4985031;28;20054;-62
2021/11/11 04:13:36;;;;;;;61.30;28.27;;;;;;;2.40;100.00;97185.81;4981851;28;20585;-58
2021/11/11 04:16:03;;;;;;;66.53;28.05;;;;;;;2.47;100.00;97189.72;4983015;28;20042;-61
2021/11/11 04:18:29;;;;;;;60.67;27.60;;;;;;;2.56;100.00;97195.22;4993505;28;20499;-60
2021/11/11 04:20:55;;;;;;;77.72;29.02;;;;;;;2.59;100.00;97191.91;4987620;28;20105;-60
2021/11/11 04:23:22;;;;;;;65.25;27.88;;;;;;;2.57;100.00;97188.69;4992436;28;20054;-61
2021/11/11 04:26:00;;;;;;;81.22;29.42;;;;;;;2.36;100.00;97190.19;4973498;28;20050;-63
2021/11/11 04:30:56;;;;;;;91.93;33.33;;;;;;;2.27;100.00;97185.50;4982569;28;20125;-63
2021/11/11 04:33:21;;;;;;;92.05;33.42;;;;;;;2.23;100.00;97179.13;4977854;28;20042;-63
2021/11/11 04:35:51;;;;;;;98.32;31.35;;;;;;;2.29;100.00;97191.41;4982673;28;20141;-60
2021/11/11 04:38:33;;;;;;;;;;;;;;;2.54;100.00;97202.00;4976384;28;20042;-61
2021/11/11 05:05:31;;;;;;;77.93;31.10;;;;;;;2.79;100.00;97201.50;4962510;28;20134;-62
2021/11/11 05:07:57;;;;;;;72.55;31.13;;;;;;;2.71;100.00;97206.81;4963308;28;20038;-60
2021/11/11 05:10:24;;;;;;;85.82;29.85;;;;;;;2.34;100.00;97209.44;4966541;28;20081;-65
2021/11/11 05:12:50;;;;;;;82.55;31.83;;;;;;;2.31;100.00;97209.25;4979859;28;20733;-59
2021/11/11 05:15:16;;;;;;;67.32;29.58;;;;;;;2.47;100.00;97200.53;4975175;28;20129;-60
2021/11/11 05:17:45;;;;;;;67.43;30.30;;;;;;;2.60;100.00;97207.03;4982224;28;20048;-59
2021/11/11 05:20:12;;;;;;;69.35;29.85;;;;;;;2.87;100.00;97211.59;4969890;28;20511;-62
2021/11/11 05:22:38;;;;;;;66.03;28.35;;;;;;;3.03;100.00;97213.97;4984163;28;20057;-61
2021/11/11 05:25:05;;;;;;;56.83;25.98;;;;;;;3.09;100.00;97214.66;4979013;28;20034;-65
2021/11/11 05:27:30;;;;;;;66.97;27.38;;;;;;;2.71;100.00;97212.22;4973996;28;20047;-63
2021/11/11 05:29:56;;;;;;;75.63;28.40;;;;;;;2.33;100.00;97210.53;4989675;28;20049;-63
2021/11/11 05:32:22;;;;;;;69.10;27.63;;;;;;;2.09;100.00;97225.03;4989742;28;21208;-61
2021/11/11 05:34:47;;;;;;;72.07;28.35;;;;;;;1.90;100.00;97218.91;4997577;28;20058;-62
2021/11/11 05:37:13;;;;;;;75.10;30.15;;;;;;;1.86;100.00;97226.81;4977868;28;20038;-59
2021/11/11 05:39:39;;;;;;;76.57;31.05;;;;;;;1.92;100.00;97225.59;4980708;28;20063;-60
2021/11/11 05:42:05;;;;;;;100.32;32.58;;;;;;;1.84;100.00;97220.09;4972660;28;20514;-60
2021/11/11 05:44:32;;;;;;;92.60;33.13;;;;;;;1.63;100.00;97216.94;4981172;28;20058;-58
2021/11/11 05:46:57;;;;;;;106.03;36.05;;;;;;;1.56;100.00;97217.31;4981968;28;20045;-58
2021/11/11 05:49:24;;;;;;;119.70;36.45;;;;;;;1.50;100.00;97210.41;4975811;28;20408;-62
2021/11/11 05:51:51;;;;;;;110.40;35.63;;;;;;;1.62;100.00;97208.06;4977205;28;20050;-60
2021/11/11 05:54:16;;;;;;;91.28;35.67;;;;;;;1.82;100.00;97206.88;4975072;28;20141;-60
2021/11/11 05:56:42;;;;;;;91.68;36.42;;;;;;;1.79;100.00;97207.47;4981406;28;20110;-61
2021/11/11 05:59:07;;;;;;;109.70;36.40;;;;;;;1.66;100.00;97209.06;4976009;28;20391;-60
2021/11/11 06:01:33;;;;;;;104.50;37.05;;;;;;;1.59;100.00;97224.84;4981390;28;20050;-60
2021/11/11 06:03:59;;;;;;;93.70;34.53;;;;;;;1.71;100.00;97227.06;4984753;28;20104;-61
2021/11/11 06:06:25;;;;;;;157.55;42.97;;;;;;;1.55;100.00;97234.63;4979449;28;20041;-62
2021/11/11 06:08:51;;;;;;;156.18;39.65;;;;;;;1.47;100.00;97230.69;4985543;28;20038;-60
2021/11/11 06:11:17;;;;;;;161.43;39.35;;;;;;;1.47;100.00;97230.69;4979828;28;20114;-62
2021/11/11 06:13:43;;;;;;;140.00;38.78;;;;;;;1.57;100.00;97231.59;4983288;28;20038;-63
2021/11/11 06:16:08;;;;;;;134.40;40.38;;;;;;;1.61;100.00;97241.53;4975417;28;20458;-62
2021/11/11 06:18:34;;;;;;;105.65;37.75;;;;;;;1.68;100.00;97241.16;4983396;28;20649;-62
2021/11/11 06:21:00;;;;;;;157.85;41.47;;;;;;;1.79;100.00;97248.00;4978657;28;20060;-63
2021/11/11 06:23:26;;;;;;;139.25;40.25;;;;;;;1.80;100.00;97236.09;4980059;28;20133;-64
2021/11/11 06:25:52;;;;;;;111.53;40.03;;;;;;;2.01;100.00;97241.13;4985219;28;20066;-63
2021/11/11 06:28:18;;;;;;;101.72;36.90;;;;;;;2.20;100.00;97241.09;4979810;28;20152;-63
2021/11/11 06:30:43;;;;;;;124.13;40.70;;;;;;;2.05;100.00;97252.94;4984121;28;20050;-64
2021/11/11 06:33:08;;;;;;;108.03;39.90;;;;;;;1.84;100.00;97249.81;4988658;28;20065;-63
2021/11/11 06:35:34;;;;;;;165.90;40.78;;;;;;;1.81;100.00;97253.09;4984651;28;20114;-64
2021/11/11 06:38:01;;;;;;;144.60;39.58;;;;;;;1.85;100.00;97256.81;4982994;28;20149;-60
2021/11/11 06:40:28;;;;;;;125.75;39.92;;;;;;;1.89;100.00;97260.50;4976296;28;20042;-60
2021/11/11 06:42:56;;;;;;;119.70;37.85;;;;;;;2.02;100.00;97267.88;4984026;28;20082;-60
2021/11/11 06:45:22;;;;;;;107.15;36.20;;;;;;;2.16;100.00;97269.78;4987431;28;20058;-63
2021/11/11 06:47:47;;;;;;;111.82;40.05;;;;;;;2.43;100.00;97274.41;4997256;28;20053;-62
2021/11/11 06:50:13;;;;;;;92.40;35.53;;;;;;;2.57;100.00;97277.13;4973114;28;20042;-62
2021/11/11 06:52:39;;;;;;;86.97;34.70;;;;;;;2.75;100.00;97281.63;4985104;28;20045;-60
2021/11/11 06:55:08;;;;;;;95.15;34.70;;;;;;;2.90;100.00;97283.25;4983974;28;20118;-64
2021/11/11 06:57:34;;;;;;;90.32;32.85;;;;;;;2.98;100.00;97292.56;4985169;28;20511;-59
2021/11/11 07:00:01;;;;;;;88.75;32.45;;;;;;;2.97;100.00;97296.34;4970684;28;20043;-62
2021/11/11 07:02:26;;;;;;;124.15;33.70;;;;;;;2.91;100.00;97297.56;4973442;28;20863;-60
2021/11/11 07:04:53;;;;;;;95.75;30.33;;;;;;;2.93;100.00;97298.84;4983407;28;20055;-60
2021/11/11 07:07:18;;;;;;;71.90;30.88;;;;;;;3.02;100.00;97305.16;4979537;28;20062;-61
2021/11/11 07:09:44;;;;;;;76.70;31.65;;;;;;;3.00;100.00;97303.88;4981433;28;20053;-61
2021/11/11 07:12:09;;;;;;;85.22;30.35;;;;;;;3.12;100.00;97306.88;4975863;28;20077;-62
2021/11/11 07:14:36;;;;;;;66.75;28.35;;;;;;;3.19;100.00;97309.16;4979286;28;20049;-63
2021/11/11 07:17:03;;;;;;;64.25;28.30;;;;;;;3.24;100.00;97309.84;4982643;28;20035;-64
2021/11/11 07:19:29;;;;;;;80.80;27.08;;;;;;;3.16;100.00;97312.47;4982224;28;20046;-61
2021/11/11 07:21:54;;;;;;;62.22;26.00;;;;;;;3.10;100.00;97306.38;4981006;28;20050;-63
2021/11/11 07:24:20;;;;;;;64.70;27.63;;;;;;;3.14;100.00;97303.88;4978983;28;20042;-62
2021/11/11 07:26:45;;;;;;;55.63;25.25;;;;;;;3.16;100.00;97318.69;4983716;28;20046;-62
2021/11/11 07:29:11;;;;;;;73.50;27.55;;;;;;;3.05;100.00;97318.09;4992878;28;20060;-67
2021/11/11 07:31:36;;;;;;;54.78;27.00;;;;;;;3.13;100.00;97319.28;4984892;28;20042;-64
2021/11/11 07:34:02;;;;;;;59.65;27.35;;;;;;;3.24;100.00;97320.69;4975419;28;20035;-65
2021/11/11 07:36:28;;;;;;;136.20;26.38;;;;;;;3.02;100.00;97321.41;4969391;28;20050;-64
2021/11/11 07:38:53;;;;;;;155.98;31.55;;;;;;;3.04;100.00;97324.63;4980894;28;20046;-60
2021/11/11 07:41:20;;;;;;;64.85;27.02;;;;;;;3.12;100.00;97328.53;4978722;28;20080;-62
2021/11/11 07:43:45;;;;;;;64.50;27.80;;;;;;;3.33;100.00;97326.19;4986753;28;20114;-62
2021/11/11 07:46:11;;;;;;;57.05;25.27;;;;;;;3.16;100.00;97328.72;4979534;28;20077;-62
2021/11/11 07:48:36;;;;;;;66.40;26.58;;;;;;;3.26;100.00;97323.09;4987771;28;20100;-60
2021/11/11 07:51:04;;;;;;;67.55;28.02;;;;;;;3.38;100.00;97322.56;4984324;28;20076;-60
2021/11/11 07:53:30;;;;;;;64.35;27.52;;;;;;;3.55;100.00;97327.34;4980033;28;20525;-60
2021/11/11 07:55:56;;;;;;;60.15;26.15;;;;;;;3.66;100.00;97319.78;4983197;28;20050;-59
2021/11/11 07:58:22;;;;;;;59.70;25.13;;;;;;;3.78;100.00;97318.13;4976562;28;20905;-61
2021/11/11 08:00:48;;;;;;;51.65;24.63;;;;;;;3.81;100.00;97309.38;4974580;28;20817;-60
2021/11/11 08:03:13;;;;;;;54.22;23.67;;;;;;;3.83;100.00;97309.06;4976996;28;20390;-64
2021/11/11 08:05:42;;;;;;;53.17;25.52;;;;;;;3.86;100.00;97307.66;4981330;28;20049;-63
2021/11/11 08:08:09;;;;;;;53.45;24.45;;;;;;;3.91;100.00;97308.34;4971048;28;20486;-62
2021/11/11 08:10:35;;;;;;;57.97;25.15;;;;;;;3.92;100.00;97299.09;4986613;28;20050;-61
2021/11/11 08:13:01;;;;;;;56.97;24.60;;;;;;;3.90;100.00;97293.19;4983694;28;20057;-61
2021/11/11 08:15:26;;;;;;;56.33;24.38;;;;;;;3.90;100.00;97298.59;4963623;28;20077;-59
2021/11/11 08:17:52;;;;;;;54.00;24.60;;;;;;;3.92;100.00;97293.66;4962863;28;20050;-63
2021/11/11 08:20:18;;;;;;;51.67;24.58;;;;;;;4.19;100.00;97306.28;4955665;28;20047;-63
2021/11/11 08:22:44;;;;;;;65.63;23.55;;;;;;;4.09;100.00;97308.44;4963385;28;20051;-63
2021/11/11 08:25:11;;;;;;;48.95;23.83;;;;;;;4.13;100.00;97307.53;4957024;28;20042;-63
2021/11/11 08:27:38;;;;;;;52.85;24.17;;;;;;;4.09;100.00;97308.44;4963341;28;20060;-61
2021/11/11 08:30:09;;;;;;;47.38;23.67;;;;;;;4.28;100.00;97302.81;4960202;28;20046;-64
2021/11/11 08:32:35;;;;;;;47.47;23.45;;;;;;;4.51;100.00;97298.16;4961016;28;20145;-61
2021/11/11 08:35:01;;;;;;;51.50;22.27;;;;;;;4.65;100.00;97304.28;4960411;28;20523;-62
2021/11/11 08:37:27;;;;;;;70.53;22.75;;;;;;;4.42;100.00;97306.25;4967724;28;20054;-62
2021/11/11 08:39:54;;;;;;;47.70;22.35;;;;;;;4.46;100.00;97318.06;4964470;28;20435;-62
2021/11/11 08:42:19;;;;;;;58.88;23.90;;;;;;;4.56;100.00;97317.81;4974237;28;20060;-62
2021/11/11 08:44:46;;;;;;;47.30;22.20;;;;;;;4.51;100.00;97315.22;4963975;28;20571;-64
2021/11/11 08:47:13;;;;;;;48.00;21.95;;;;;;;4.65;100.00;97322.50;4971871;28;20069;-62
2021/11/11 08:49:40;;;;;;;42.13;22.27;;;;;;;4.78;100.00;97325.06;4981053;28;20049;-62
2021/11/11 08:52:07;;;;;;;50.67;24.33;;;;;;;4.87;100.00;97318.91;4973328;28;20525;-64
2021/11/11 08:54:32;;;;;;;45.90;21.98;;;;;;;5.01;100.00;97322.28;4976938;28;20078;-61
2021/11/11 08:56:58;;;;;;;46.20;20.35;;;;;;;5.00;100.00;97328.81;4979629;28;20448;-63
2021/11/11 08:59:24;;;;;;;44.20;21.60;;;;;;;4.97;100.00;97329.47;4991091;28;20532;-60
2021/11/11 09:01:52;;;;;;;49.55;21.58;;;;;;;5.01;100.00;97335.06;4993033;28;20066;-60
2021/11/11 09:04:18;;;;;;;47.95;21.70;;;;;;;4.82;100.00;97332.59;4975859;28;20050;-61
2021/11/11 09:06:45;;;;;;;61.10;22.10;;;;;;;4.68;100.00;97341.66;4981912;28;20043;-62
2021/11/11 09:09:13;;;;;;;49.85;22.30;;;;;;;4.66;100.00;97341.13;4975219;28;20121;-62
2021/11/11 09:11:39;;;;;;;56.13;23.48;;;;;;;4.90;100.00;97348.13;4979487;28;20035;-58
2021/11/11 09:14:06;;;;;;;50.40;21.77;;;;;;;5.06;100.00;97343.88;4977798;28;20054;-63
2021/11/11 09:16:33;;;;;;;50.45;22.33;;;;;;;5.17;100.00;97349.81;4999091;28;20066;-63
2021/11/11 09:18:59;;;;;;;45.53;21.45;;;;;;;5.08;100.00;97347.06;4989668;28;20112;-61
2021/11/11 09:21:26;;;;;;;56.47;27.50;;;;;;;4.98;100.00;97345.44;4977699;28;20137;-62
2021/11/11 09:23:51;;;;;;;46.55;23.20;;;;;;;5.19;100.00;97354.94;4974981;28;20054;-62
2021/11/11 09:26:18;;;;;;;41.25;20.70;;;;;;;5.28;100.00;97351.13;4972977;28;20104;-61
2021/11/11 09:28:45;;;;;;;49.20;22.05;;;;;;;5.29;100.00;97354.63;4980747;28;20399;-62
2021/11/11 09:31:11;;;;;;;48.00;21.42;;;;;;;5.30;100.00;97356.25;4982306;28;20042;-65
2021/11/11 09:33:39;;;;;;;46.42;20.98;;;;;;;5.23;100.00;97364.84;4996991;28;20066;-63
2021/11/11 09:36:05;;;;;;;42.97;20.80;;;;;;;5.32;100.00;97362.94;4994773;28;20137;-62
2021/11/11 09:38:30;;;;;;;45.10;21.08;;;;;;;5.10;100.00;97360.34;4998098;28;20105;-64
2021/11/11 09:40:56;;;;;;;46.88;21.58;;;;;;;5.09;100.00;97358.72;4991323;28;20050;-63
2021/11/11 09:43:24;;;;;;;46.70;23.02;;;;;;;5.01;100.00;97359.50;4978082;28;20582;-61
2021/11/11 09:45:51;;;;;;;48.70;24.08;;;;;;;5.19;100.00;97360.38;4976422;28;20049;-59
2021/11/11 09:48:18;;;;;;;61.25;27.30;;;;;;;4.53;100.00;97361.03;4960225;28;20068;-60
2021/11/11 09:50:45;;;;;;;52.72;25.42;;;;;;;4.54;100.00;97357.22;4985283;28;20101;-61
2021/11/11 09:53:20;;;;;;;52.78;24.15;;;;;;;4.76;100.00;97348.22;4969961;28;20427;-61
2021/11/11 09:58:41;;;;;;;47.70;21.92;;;;;;;5.60;100.00;97331.97;4998372;28;20118;-61
2021/11/11 10:01:20;;;;;;;47.75;22.85;;;;;;;5.81;100.00;97337.59;4988255;28;20050;-61
2021/11/11 10:03:48;;;;;;;62.17;22.77;;;;;;;5.45;100.00;97341.41;4978551;28;20046;-63
2021/11/11 10:06:17;;;;;;;44.13;22.13;;;;;;;5.39;100.00;97353.53;4980659;28;20093;-61
2021/11/11 10:08:48;;;;;;;57.97;24.30;;;;;;;5.07;100.00;97350.88;4988242;28;20127;-61
2021/11/11 10:11:32;;;;;;;51.42;24.33;;;;;;;5.30;100.00;97348.09;4982551;28;20092;-63
2021/11/11 10:14:05;;;;;;;48.97;22.45;;;;;;;5.40;100.00;97342.34;4977675;28;20034;-64
2021/11/11 10:16:34;;;;;;;60.75;24.42;;;;;;;5.50;100.00;97347.47;4980145;28;20050;-63
2021/11/11 10:19:03;;;;;;;53.80;24.42;;;;;;;5.64;100.00;97341.91;4973904;28;20034;-63
2021/11/11 10:21:44;;;;;;;44.75;22.02;;;;;;;5.59;100.00;97341.25;4969655;28;20042;-63
2021/11/11 10:24:13;;;;;;;52.13;24.08;;;;;;;5.85;100.00;97339.38;4969096;28;20072;-62
2021/11/11 10:26:42;;;;;;;48.35;24.60;;;;;;;5.82;100.00;97339.22;4972584;28;20157;-62
2021/11/11 10:29:31;;;;;;;75.30;34.17;;;;;;;5.85;100.00;97338.53;4974713;28;20042;-62
2021/11/11 10:32:19;;;;;;;48.33;23.17;;;;;;;5.88;100.00;97332.47;4977471;28;20294;-63
2021/11/11 10:35:02;;;;;;;43.60;22.17;;;;;;;5.92;100.00;97320.66;4965273;28;20053;-62
2021/11/11 10:37:32;;;;;;;49.30;23.17;;;;;;;5.98;100.00;97323.22;4973544;28;20065;-62
2021/11/11 10:40:13;;;;;;;47.75;23.38;;;;;;;5.99;100.00;97322.09;4979345;28;20129;-61
2021/11/11 10:42:42;;;;;;;46.65;23.15;;;;;;;6.02;100.00;97319.53;4972117;28;20043;-62
2021/11/11 10:45:13;;;;;;;47.38;24.45;;;;;;;6.09;100.00;97306.25;4966734;28;20049;-64
2021/11/11 10:47:42;;;;;;;48.20;25.42;;;;;;;6.23;100.00;97305.25;4977200;28;20046;-62
2021/11/11 10:50:16;;;;;;;48.60;23.65;;;;;;;6.31;100.00;97299.03;4985391;28;20061;-61
2021/11/11 10:52:46;;;;;;;55.75;25.70;;;;;;;6.28;100.00;97295.03;4985183;28;20050;-61
2021/11/11 10:55:11;;;;;;;;;;;;;;;6.37;100.00;97292.28;4984025;28;20050;-62
2021/11/11 10:57:56;;;;;;;53.40;24.80;;;;;;;6.27;100.00;97295.34;4976370;28;19917;-57
2021/11/11 11:00:39;;;;;;;53.72;24.80;;;;;;;6.22;100.00;97288.16;4966352;28;20591;-61
2021/11/11 11:03:09;;;;;;;51.72;25.33;;;;;;;6.33;100.00;97283.16;4975745;28;20109;-59
2021/11/11 11:05:54;;;;;;;44.47;23.98;;;;;;;6.41;100.00;97287.78;4978231;28;20046;-61
2021/11/11 11:08:30;;;;;;;53.03;24.63;;;;;;;6.24;100.00;97285.91;4966759;28;20117;-61
2021/11/11 11:11:12;;;;;;;54.28;26.42;;;;;;;6.25;100.00;97282.06;4974483;28;20042;-59
2021/11/11 11:13:43;;;;;;;49.47;24.73;;;;;;;6.40;100.00;97280.75;5001738;23;20420;-61
2021/11/11 11:16:11;;;;;;;56.65;27.52;;;;;;;6.57;100.00;97270.91;4976963;28;20042;-60
2021/11/11 11:18:41;;;;;;;54.60;25.33;;;;;;;6.60;100.00;97273.00;4982375;28;20443;-60
2021/11/11 11:21:08;;;;;;;;;;;;;;;6.67;100.00;97278.72;4977441;28;20494;-61
2021/11/11 11:23:37;;;;;;;50.22;24.88;;;;;;;6.50;100.00;97264.06;4981619;28;20141;-61
2021/11/11 11:26:22;;;;;;;42.17;19.00;;;;;;;6.51;100.00;97264.88;4978132;28;20097;-60
2021/11/11 11:29:09;;;;;;;54.42;26.35;;;;;;;6.51;100.00;97259.41;4980868;28;20042;-59
2021/11/11 11:31:42;;;;;;;53.50;26.17;;;;;;;5.53;100.00;97251.75;4992616;28;20058;-61
2021/11/11 11:34:11;;;;;;;60.58;28.90;;;;;;;4.89;100.00;97248.81;4980404;28;20053;-57
2021/11/11 11:36:46;;;;;;;60.27;27.93;;;;;;;5.37;100.00;97250.63;4983549;28;20049;-59
2021/11/11 11:39:38;;;;;;;59.90;28.88;;;;;;;5.73;100.00;97244.06;4975986;28;20034;-60
2021/11/11 11:42:10;;;;;;;61.75;27.35;;;;;;;6.06;100.00;97238.91;4977598;28;20054;-60
2021/11/11 11:44:49;;;;;;;62.50;28.50;;;;;;;6.44;100.00;97249.03;4981212;28;20054;-59
2021/11/11 11:47:39;;;;;;;60.53;28.48;;;;;;;6.57;100.00;97246.44;4976225;28;20046;-61
2021/11/11 11:50:20;;;;;;;56.00;27.95;;;;;;;6.58;100.00;97242.59;4974505;28;20046;-58